Time;durP1;ratioP1;P1;durP2;ratioP2;P2;SDS_P1;SDS_P2;PMS_P1;PMS_P2;Temp;Humidity;BMP_temperature;BMP_pressure;BME280_temperature;BME280_humidity;BME280_pressure;Samples;Min_cycle;Max_cycle;Signal;HPM_P1;HPM_P2
2021/04/05 00:01:42;;;;;;;19.90;13.57;;;6.20;1.00;;;;;;5074958;28;20164;-82
2021/04/05 00:04:08;;;;;;;18.17;13.03;;;6.20;1.00;;;;;;5056675;28;20168;-85
2021/04/05 00:06:35;;;;;;;27.20;14.67;;;6.10;1.00;;;;;;5056221;28;20172;-85
2021/04/05 00:09:01;;;;;;;26.57;16.23;;;6.00;1.00;;;;;;5074313;28;20172;-84
2021/04/05 00:11:26;;;;;;;25.40;14.87;;;6.10;1.00;;;;;;5074183;28;20165;-83
2021/04/05 00:13:52;;;;;;;28.27;15.90;;;6.00;1.00;;;;;;5074219;28;20172;-81
2021/04/05 00:16:20;;;;;;;27.10;15.80;;;6.00;1.00;;;;;;5056503;28;20319;-82
2021/04/05 00:18:47;;;;;;;27.23;15.27;;;6.00;1.00;;;;;;5056017;28;20263;-81
2021/04/05 00:21:21;;;;;;;26.80;14.97;;;5.90;1.00;;;;;;5073719;28;20260;-83
2021/04/05 00:23:49;;;;;;;30.77;15.93;;;5.90;1.00;;;;;;5074383;28;20152;-85
2021/04/05 00:26:15;;;;;;;25.73;15.50;;;5.90;1.00;;;;;;5073831;28;20213;-82
2021/04/05 00:28:40;;;;;;;32.37;16.13;;;5.90;1.00;;;;;;5055425;28;20188;-83
2021/04/05 00:31:06;;;;;;;26.40;16.60;;;5.90;1.00;;;;;;5073570;28;20172;-82
2021/04/05 00:33:32;;;;;;;30.50;17.33;;;5.80;1.00;;;;;;5055608;28;20537;-83
2021/04/05 00:35:57;;;;;;;26.47;15.80;;;5.80;1.00;;;;;;5073551;28;20198;-83
2021/04/05 00:38:24;;;;;;;30.13;16.50;;;5.90;1.00;;;;;;5073756;28;20168;-84
2021/04/05 00:41:00;;;;;;;29.10;13.67;;;5.80;1.00;;;;;;5055967;28;20219;-83
2021/04/05 00:43:26;;;;;;;29.37;14.07;;;5.70;1.00;;;;;;5073441;28;20171;-83
2021/04/05 00:45:53;;;;;;;26.90;14.63;;;5.60;1.00;;;;;;5055633;28;20179;-79
2021/04/05 00:48:19;;;;;;;24.70;14.07;;;5.60;3.90;;;;;;5073073;28;20226;-81
2021/04/05 00:50:47;;;;;;;23.97;14.00;;;5.60;5.70;;;;;;5073458;28;20172;-80
2021/04/05 00:53:16;;;;;;;24.70;12.17;;;5.70;2.80;;;;;;5055500;28;20192;-83
2021/04/05 00:55:43;;;;;;;23.83;12.77;;;5.70;1.00;;;;;;5073561;28;20160;-82
2021/04/05 00:58:09;;;;;;;27.93;13.20;;;5.70;2.90;;;;;;5073094;28;20229;-82
2021/04/05 01:00:37;;;;;;;24.27;12.43;;;5.70;2.80;;;;;;5073440;28;20290;-82
2021/04/05 01:03:04;;;;;;;27.10;13.27;;;5.60;7.30;;;;;;5073015;28;20172;-79
2021/04/05 01:05:30;;;;;;;24.23;12.53;;;5.60;9.50;;;;;;5055437;28;20180;-83
2021/04/05 01:07:56;;;;;;;21.37;13.30;;;5.70;7.10;;;;;;5073098;28;20682;-80
2021/04/05 01:10:23;;;;;;;24.43;13.20;;;5.60;5.50;;;;;;5073266;28;20172;-83
2021/04/05 01:12:49;;;;;;;23.73;12.63;;;5.50;12.10;;;;;;5073130;28;20632;-86
2021/04/05 01:15:17;;;;;;;25.70;11.97;;;5.60;15.10;;;;;;5073278;28;20179;-81
2021/04/05 01:17:43;;;;;;;24.97;13.40;;;5.50;13.90;;;;;;5072852;28;20160;-81
2021/04/05 01:20:13;;;;;;;23.60;12.57;;;5.50;15.40;;;;;;5072862;28;20196;-83
2021/04/05 01:22:41;;;;;;;25.03;12.83;;;5.50;19.20;;;;;;5055189;28;20168;-78
2021/04/05 01:25:13;;;;;;;25.73;13.43;;;5.40;22.20;;;;;;5073109;28;20172;-83
2021/04/05 01:27:39;;;;;;;21.87;12.07;;;5.40;23.90;;;;;;5073214;28;20176;-78
2021/04/05 01:30:10;;;;;;;26.03;13.43;;;5.40;27.80;;;;;;5055532;28;20172;-78
2021/04/05 01:32:36;;;;;;;24.87;13.47;;;5.40;30.40;;;;;;5072831;28;20164;-80
2021/04/05 01:35:02;;;;;;;27.17;13.37;;;5.40;29.50;;;;;;5072968;28;20537;-80
2021/04/05 01:37:27;;;;;;;27.73;13.37;;;5.30;34.00;;;;;;5073059;28;20172;-81
2021/04/05 01:39:53;;;;;;;27.83;14.73;;;5.30;35.00;;;;;;5076258;28;20207;-80
2021/04/05 01:42:18;;;;;;;26.67;13.77;;;5.40;35.30;;;;;;5076982;28;20192;-83
2021/04/05 01:44:44;;;;;;;25.20;14.30;;;5.30;37.20;;;;;;5076952;28;20258;-79
2021/04/05 01:47:10;;;;;;;31.70;15.43;;;5.30;37.50;;;;;;5076783;28;20173;-78
2021/04/05 01:49:39;;;;;;;26.43;13.27;;;5.30;39.40;;;;;;5076870;28;20250;-83
2021/04/05 01:52:15;;;;;;;28.33;12.77;;;5.20;39.90;;;;;;5076985;28;20169;-84
2021/04/05 01:54:40;;;;;;;25.97;13.97;;;5.20;44.20;;;;;;5076847;28;20176;-81
2021/04/05 01:57:09;;;;;;;25.17;13.77;;;5.20;45.60;;;;;;5076829;28;20577;-82
2021/04/05 01:59:35;;;;;;;24.27;13.10;;;5.20;49.80;;;;;;5076623;28;20200;-84
2021/04/05 02:02:01;;;;;;;26.47;14.27;;;5.20;51.40;;;;;;5076555;28;20168;-83
2021/04/05 02:04:27;;;;;;;28.93;14.17;;;5.10;53.90;;;;;;5058659;28;20528;-80
2021/04/05 02:06:53;;;;;;;29.20;14.23;;;5.20;53.60;;;;;;5076572;28;20172;-83
2021/04/05 02:09:19;;;;;;;26.73;15.00;;;5.20;52.70;;;;;;5058504;28;20287;-79
2021/04/05 02:11:44;;;;;;;28.57;15.87;;;5.20;54.00;;;;;;5076602;28;20299;-85
2021/04/05 02:14:11;;;;;;;33.60;15.73;;;5.20;57.00;;;;;;5076322;28;20229;-79
2021/04/05 02:16:37;;;;;;;26.83;15.13;;;5.20;57.80;;;;;;5058307;28;20176;-85
2021/04/05 02:19:03;;;;;;;30.33;17.33;;;5.20;60.70;;;;;;5076085;28;20200;-79
2021/04/05 02:21:30;;;;;;;32.23;18.73;;;5.20;66.40;;;;;;5076097;28;20172;-82
2021/04/05 02:24:01;;;;;;;25.53;17.03;;;5.20;69.40;;;;;;5076117;28;20176;-82
2021/04/05 02:26:29;;;;;;;34.23;18.83;;;5.20;71.00;;;;;;5058261;28;20181;-80
2021/04/05 02:28:59;;;;;;;33.27;19.37;;;5.20;73.90;;;;;;5057941;28;20192;-80
2021/04/05 02:31:25;;;;;;;31.90;19.33;;;5.30;75.90;;;;;;5075990;28;20168;-80
2021/04/05 02:33:55;;;;;;;33.17;20.47;;;5.40;76.40;;;;;;5076043;28;20165;-84
2021/04/05 02:36:30;;;;;;;34.73;19.70;;;5.40;77.80;;;;;;5076058;28;20222;-83
2021/04/05 02:38:59;;;;;;;43.13;21.80;;;5.40;81.10;;;;;;5075777;28;20230;-82
2021/04/05 02:41:27;;;;;;;38.27;21.07;;;5.50;83.30;;;;;;5075815;28;20667;-80
2021/04/05 02:43:54;;;;;;;46.77;22.33;;;5.50;83.30;;;;;;5075559;28;20196;-81
2021/04/05 02:46:23;;;;;;;41.40;22.77;;;5.50;85.00;;;;;;5075800;28;20160;-84
2021/04/05 02:48:50;;;;;;;42.30;22.50;;;5.50;85.50;;;;;;5075860;28;20176;-78
2021/04/05 02:51:17;;;;;;;45.90;22.47;;;5.60;87.90;;;;;;5057127;28;20213;-81
2021/04/05 02:53:47;;;;;;;43.63;22.27;;;5.60;88.50;;;;;;5075629;28;20165;-79
2021/04/05 02:56:14;;;;;;;37.10;22.10;;;5.60;87.20;;;;;;5075656;28;20181;-82
2021/04/05 02:58:43;;;;;;;43.90;22.87;;;5.60;88.20;;;;;;5057422;28;20257;-79
2021/04/05 03:01:10;;;;;;;38.70;23.93;;;5.70;90.30;;;;;;5075500;28;20542;-81
2021/04/05 03:03:40;;;;;;;39.30;22.73;;;5.70;91.20;;;;;;5075394;28;20192;-79
2021/04/05 03:06:07;;;;;;;44.17;23.67;;;5.80;91.80;;;;;;5057463;28;20172;-84
2021/04/05 03:08:34;;;;;;;42.70;23.77;;;5.90;91.50;;;;;;5075556;28;20187;-83
2021/04/05 03:11:00;;;;;;;46.60;24.60;;;5.90;89.90;;;;;;5075292;28;20183;-82
2021/04/05 03:13:29;;;;;;;43.30;24.50;;;6.00;89.70;;;;;;5074985;28;20218;-84
2021/04/05 03:15:55;;;;;;;41.60;25.57;;;6.10;90.50;;;;;;5075200;28;20164;-81
2021/04/05 03:18:22;;;;;;;52.03;26.70;;;6.10;89.30;;;;;;5075225;28;20202;-82
2021/04/05 03:20:49;;;;;;;42.27;24.40;;;6.00;90.00;;;;;;5074911;28;20207;-83
2021/04/05 03:23:15;;;;;;;40.60;24.37;;;6.10;91.50;;;;;;5075034;28;20255;-82
2021/04/05 03:25:41;;;;;;;54.70;28.43;;;6.10;92.90;;;;;;5075035;28;20179;-82
2021/04/05 03:28:07;;;;;;;45.30;26.50;;;6.10;93.10;;;;;;5074643;28;20177;-78
2021/04/05 03:30:45;;;;;;;44.97;26.23;;;6.10;93.80;;;;;;5074933;28;20172;-82
2021/04/05 03:33:17;;;;;;;46.73;27.07;;;6.20;94.10;;;;;;5074910;28;20168;-78
2021/04/05 03:35:45;;;;;;;46.37;25.53;;;6.20;94.60;;;;;;5074999;28;20499;-79
2021/04/05 03:38:12;;;;;;;50.47;26.50;;;6.30;94.90;;;;;;5075055;28;20636;-81
2021/04/05 03:40:44;;;;;;;45.83;26.00;;;6.30;94.60;;;;;;5056815;28;20216;-82
2021/04/05 03:43:28;;;;;;;49.97;25.90;;;6.30;94.40;;;;;;5074510;28;20176;-83
2021/04/05 03:46:05;;;;;;;39.87;24.67;;;6.30;95.00;;;;;;5074570;28;20172;-81
2021/04/05 03:49:01;;;;;;;51.17;27.37;;;6.30;95.90;;;;;;5056749;28;20176;-78
2021/04/05 03:51:40;;;;;;;45.63;25.23;;;6.30;96.40;;;;;;5056572;28;20180;-80
2021/04/05 03:54:09;;;;;;;46.00;25.33;;;6.30;97.00;;;;;;5074537;28;20554;-79
2021/04/05 03:56:42;;;;;;;45.50;26.30;;;6.40;97.90;;;;;;5074059;28;20260;-79
2021/04/05 03:59:12;;;;;;;50.07;26.23;;;6.40;97.60;;;;;;5074427;28;20203;-82
2021/04/05 04:01:47;;;;;;;45.40;28.70;;;6.40;97.60;;;;;;5073613;28;20176;-83
2021/04/05 04:04:36;;;;;;;54.57;29.67;;;6.50;98.50;;;;;;5055972;28;20167;-78
2021/04/05 04:07:20;;;;;;;53.00;26.63;;;6.50;98.60;;;;;;5073426;28;20176;-79
2021/04/05 04:09:48;;;;;;;54.00;28.80;;;6.50;99.20;;;;;;5073908;28;20160;-82
2021/04/05 04:12:16;;;;;;;59.17;29.47;;;6.50;99.50;;;;;;5073690;28;20164;-77
2021/04/05 04:14:43;;;;;;;55.17;30.40;;;6.60;99.90;;;;;;5074291;28;20258;-81
2021/04/05 04:17:10;;;;;;;56.70;29.90;;;6.60;99.90;;;;;;5056045;28;20172;-80
2021/04/05 04:19:39;;;;;;;51.83;28.53;;;6.60;99.90;;;;;;5074070;28;20211;-79
2021/04/05 04:22:08;;;;;;;56.80;30.80;;;6.60;99.90;;;;;;5056765;28;20502;-80
2021/04/05 04:24:35;;;;;;;53.70;28.27;;;6.60;99.90;;;;;;5075205;28;20643;-79
2021/04/05 04:27:02;;;;;;;50.60;28.57;;;6.60;99.90;;;;;;5056766;28;20624;-79
2021/04/05 04:29:28;;;;;;;50.63;28.23;;;6.70;99.90;;;;;;5055877;28;20180;-80
2021/04/05 04:31:54;;;;;;;52.13;29.83;;;6.70;99.90;;;;;;5074106;28;20168;-82
2021/04/05 04:34:21;;;;;;;50.67;29.53;;;6.70;99.90;;;;;;5060699;28;20183;-78
2021/04/05 04:36:48;;;;;;;49.90;28.60;;;6.70;99.90;;;;;;5076295;28;20164;-82
2021/04/05 04:39:15;;;;;;;54.97;30.83;;;6.70;99.90;;;;;;5056296;28;20298;-80
2021/04/05 04:41:42;;;;;;;46.53;29.07;;;6.80;99.90;;;;;;5073116;28;20200;-82
2021/04/05 04:44:08;;;;;;;58.07;30.50;;;6.80;99.90;;;;;;5073866;28;20225;-79
2021/04/05 04:46:34;;;;;;;52.87;29.93;;;6.80;99.90;;;;;;5073381;28;20179;-78
2021/04/05 04:49:03;;;;;;;49.40;30.57;;;6.80;99.90;;;;;;5073617;28;20250;-81
2021/04/05 04:51:29;;;;;;;54.97;31.77;;;6.80;99.90;;;;;;5073421;28;20627;-83
2021/04/05 04:53:57;;;;;;;52.73;32.83;;;6.80;99.90;;;;;;5073336;28;20230;-81
2021/04/05 04:56:23;;;;;;;50.43;30.03;;;6.80;99.90;;;;;;5073203;28;20164;-78
2021/04/05 04:58:50;;;;;;;52.83;31.63;;;6.90;99.90;;;;;;5055167;28;20184;-78
2021/04/05 05:01:16;;;;;;;57.00;30.00;;;6.90;99.90;;;;;;5073331;28;20164;-82
2021/04/05 05:03:52;;;;;;;54.47;29.97;;;6.90;99.90;;;;;;5055169;28;20632;-83
2021/04/05 05:06:20;;;;;;;48.17;30.20;;;6.90;99.90;;;;;;5073211;28;20216;-83
2021/04/05 05:08:46;;;;;;;50.63;30.80;;;6.90;99.90;;;;;;5073041;28;20172;-82
2021/04/05 05:11:13;;;;;;;57.00;31.63;;;7.00;99.90;;;;;;5073154;28;20171;-79
2021/04/05 05:13:39;;;;;;;60.10;31.83;;;7.10;99.90;;;;;;5072821;28;20164;-81
2021/04/05 05:16:06;;;;;;;52.93;29.87;;;7.10;99.90;;;;;;5055334;28;20199;-84
2021/04/05 05:18:32;;;;;;;52.70;29.80;;;7.10;99.90;;;;;;5073036;28;20160;-78
2021/04/05 05:21:01;;;;;;;51.30;31.53;;;7.10;99.90;;;;;;5073054;28;20222;-84
2021/04/05 05:23:29;;;;;;;51.33;30.37;;;7.20;99.90;;;;;;5072634;28;20259;-77
2021/04/05 05:25:56;;;;;;;41.63;28.37;;;7.20;99.90;;;;;;5073088;28;20213;-84
2021/04/05 05:28:22;;;;;;;46.47;29.10;;;7.20;99.90;;;;;;5072937;28;20176;-80
2021/04/05 05:30:48;;;;;;;45.70;27.50;;;7.20;99.90;;;;;;5055352;28;20183;-84
2021/04/05 05:33:14;;;;;;;46.17;28.50;;;7.20;99.90;;;;;;5073051;28;20168;-81
2021/04/05 05:35:41;;;;;;;49.90;30.27;;;7.30;99.90;;;;;;5073946;28;20175;-82
2021/04/05 05:38:07;;;;;;;47.80;29.83;;;7.30;99.90;;;;;;5073568;28;20173;-84
2021/04/05 05:40:36;;;;;;;46.87;27.87;;;7.30;99.90;;;;;;5072719;28;20214;-84
2021/04/05 05:43:27;;;;;;;46.17;29.20;;;7.30;99.90;;;;;;5054838;28;20616;-82
2021/04/05 05:46:19;;;;;;;44.00;23.10;;;7.30;99.90;;;;;;5055013;28;20233;-80
2021/04/05 05:49:08;;;;;;;45.83;26.97;;;7.40;99.90;;;;;;5073790;28;20531;-84
2021/04/05 05:51:40;;;;;;;43.57;26.13;;;7.40;99.90;;;;;;5073152;28;20563;-81
2021/04/05 05:54:35;;;;;;;41.57;26.30;;;7.40;99.90;;;;;;5055111;28;20168;-84
2021/04/05 05:57:10;;;;;;;44.27;25.97;;;7.40;99.90;;;;;;5074354;28;20165;-81
2021/04/05 06:00:01;;;;;;;45.50;26.97;;;7.40;99.90;;;;;;5072891;28;20196;-81
2021/04/05 06:02:42;;;;;;;42.13;26.33;;;7.50;99.90;;;;;;5077738;28;20233;-81
2021/04/05 06:06:00;;;;;;;45.03;25.73;;;7.60;99.90;;;;;;5074703;28;20172;-83
2021/04/05 06:08:51;;;;;;;42.47;24.53;;;7.50;99.90;;;;;;4971544;28;20175;-82
2021/04/05 06:11:23;;;;;;;42.63;25.90;;;7.60;99.90;;;;;;5068450;28;20216;-82
2021/04/05 06:13:59;;;;;;;43.83;25.43;;;7.60;99.90;;;;;;5054390;28;20218;-84
2021/04/05 06:16:33;;;;;;;44.10;24.97;;;7.50;99.90;;;;;;5072728;28;20636;-80
2021/04/05 06:19:06;;;;;;;42.37;24.13;;;7.60;99.90;;;;;;5054453;28;20168;-84
2021/04/05 06:21:55;;;;;;;39.07;23.07;;;7.60;99.90;;;;;;5072624;28;20176;-83
2021/04/05 06:24:42;;;;;;;35.93;22.97;;;7.70;99.90;;;;;;5054822;28;20168;-79
2021/04/05 06:27:16;;;;;;;37.90;22.37;;;7.70;99.90;;;;;;5076189;28;20176;-82
2021/04/05 06:30:00;;;;;;;35.83;22.03;;;7.80;99.90;;;;;;5075962;28;20164;-81
2021/04/05 06:32:38;;;;;;;37.23;21.47;;;7.90;99.90;;;;;;5058245;28;20176;-84
2021/04/05 06:35:45;;;;;;;29.73;20.23;;;8.00;99.40;;;;;;5075851;28;20172;-82
2021/04/05 06:38:16;;;;;;;39.87;21.30;;;8.00;99.10;;;;;;5057573;28;20266;-78
2021/04/05 06:40:43;;;;;;;33.77;20.70;;;8.00;99.10;;;;;;5056965;28;20264;-82
2021/04/05 06:43:24;;;;;;;35.43;18.80;;;8.10;98.80;;;;;;5057686;28;20176;-80
2021/04/05 06:46:11;;;;;;;27.20;17.30;;;8.10;98.40;;;;;;5075691;28;20164;-83
2021/04/05 06:49:21;;;;;;;30.50;18.03;;;8.20;98.20;;;;;;5075621;28;20169;-82
2021/04/05 06:52:23;;;;;;;30.90;17.27;;;8.20;97.70;;;;;;5026905;28;20218;-80
2021/04/05 06:54:59;;;;;;;25.93;17.07;;;8.30;97.10;;;;;;5059266;28;20668;-83
2021/04/05 06:58:02;;;;;;;29.10;15.50;;;8.40;96.80;;;;;;5057562;28;20619;-83
2021/04/05 07:00:51;;;;;;;26.50;15.00;;;8.40;96.10;;;;;;5075223;28;20208;-84
2021/04/05 07:03:17;;;;;;;26.87;15.77;;;8.40;95.90;;;;;;5075148;28;20172;-82
2021/04/05 07:06:01;;;;;;;26.33;17.13;;;8.40;96.00;;;;;;5056841;28;20180;-78
2021/04/05 07:08:33;;;;;;;28.77;15.67;;;8.50;95.90;;;;;;5075071;28;20173;-81
2021/04/05 07:11:37;;;;;;;26.73;16.43;;;8.50;95.50;;;;;;5075013;28;20230;-83
2021/04/05 07:14:33;;;;;;;25.43;14.77;;;8.50;95.70;;;;;;5024153;28;20212;-81
2021/04/05 07:17:23;;;;;;;23.57;14.47;;;8.50;95.60;;;;;;5075246;28;20168;-79
2021/04/05 07:20:12;;;;;;;24.90;15.17;;;8.50;96.00;;;;;;5056871;28;20541;-81
2021/04/05 07:22:59;;;;;;;24.00;15.87;;;8.50;96.40;;;;;;5075179;28;20362;-85
2021/04/05 07:25:54;;;;;;;28.50;15.83;;;8.50;96.90;;;;;;5057110;28;20204;-84
2021/04/05 07:28:32;;;;;;;25.77;14.87;;;8.50;97.30;;;;;;5074857;28;20196;-83
2021/04/05 07:31:14;;;;;;;21.00;11.20;;;8.50;97.40;;;;;;5057111;28;20176;-82
2021/04/05 07:33:41;;;;;;;10.87;6.80;;;8.30;96.30;;;;;;5056795;28;20563;-85
2021/04/05 07:36:10;;;;;;;10.43;4.90;;;7.90;95.20;;;;;;5055934;28;20581;-83
2021/04/05 07:39:05;;;;;;;8.00;4.80;;;7.60;94.20;;;;;;5074835;28;20194;-81
2021/04/05 07:41:51;;;;;;;9.20;3.43;;;7.50;95.40;;;;;;5074675;28;20703;-82
2021/04/05 07:44:40;;;;;;;8.67;3.97;;;7.40;95.40;;;;;;5074546;28;20168;-81
2021/04/05 07:47:19;;;;;;;12.13;4.67;;;7.30;96.40;;;;;;5075824;28;20225;-81
2021/04/05 07:50:06;;;;;;;9.80;4.73;;;7.40;96.60;;;;;;5074416;28;20179;-83
2021/04/05 07:52:48;;;;;;;9.73;4.20;;;7.40;97.10;;;;;;5074233;28;20177;-83
2021/04/05 07:55:15;;;;;;;17.70;4.90;;;7.40;97.30;;;;;;5056937;28;20223;-83
2021/04/05 07:58:02;;;;;;;11.50;4.90;;;7.40;97.50;;;;;;5074542;28;20164;-82
2021/04/05 08:00:55;;;;;;;12.20;5.10;;;7.40;97.90;;;;;;5056225;28;20261;-80
2021/04/05 08:03:46;;;;;;;13.53;6.07;;;7.30;98.20;;;;;;5056041;28;20215;-81
2021/04/05 08:06:14;;;;;;;14.17;5.60;;;7.40;98.20;;;;;;5055982;28;20176;-81
2021/04/05 08:09:00;;;;;;;12.90;5.30;;;7.40;98.80;;;;;;5056542;28;20261;-84
2021/04/05 08:11:44;;;;;;;12.90;5.57;;;7.30;98.30;;;;;;5073981;28;20222;-82
2021/04/05 08:14:41;;;;;;;15.63;5.87;;;7.50;98.80;;;;;;5073943;28;20196;-84
2021/04/05 08:17:25;;;;;;;12.23;3.70;;;7.50;98.50;;;;;;5073666;28;20230;-82
2021/04/05 08:20:08;;;;;;;8.93;2.93;;;7.30;98.50;;;;;;5073806;28;20203;-86
2021/04/05 08:22:34;;;;;;;7.57;2.67;;;6.90;97.60;;;;;;5056143;28;20203;-85
2021/04/05 08:25:43;;;;;;;7.60;2.30;;;6.80;99.40;;;;;;5055682;28;20263;-81
2021/04/05 08:28:31;;;;;;;2.37;1.13;;;6.50;98.80;;;;;;5055644;28;20187;-81
2021/04/05 08:31:36;;;;;;;3.50;0.90;;;6.20;99.30;;;;;;5074028;28;20168;-81
2021/04/05 08:34:16;;;;;;;1.93;1.10;;;6.00;99.90;;;;;;5055319;28;20261;-84
2021/04/05 08:36:55;;;;;;;10.27;2.13;;;5.70;99.90;;;;;;5055630;28;20608;-83
2021/04/05 08:39:49;;;;;;;5.23;2.00;;;5.60;99.90;;;;;;5055852;28;20620;-85
2021/04/05 08:42:59;;;;;;;5.13;1.90;;;5.40;99.90;;;;;;5055485;28;20710;-86
2021/04/05 08:45:34;;;;;;;3.90;2.07;;;5.30;99.90;;;;;;5055598;28;20176;-82
2021/04/05 08:48:08;;;;;;;7.90;1.70;;;5.20;99.90;;;;;;5054725;28;20203;-80
2021/04/05 08:50:39;;;;;;;7.30;2.30;;;5.20;99.90;;;;;;5055171;28;20263;-84
2021/04/05 08:53:07;;;;;;;8.53;2.53;;;5.20;99.90;;;;;;5072905;28;20176;-82
2021/04/05 08:55:33;;;;;;;8.57;2.63;;;5.20;99.80;;;;;;5055480;28;20593;-81
2021/04/05 08:58:10;;;;;;;10.87;2.20;;;5.30;99.60;;;;;;5072868;28;20511;-84
2021/04/05 09:00:41;;;;;;;16.57;3.70;;;5.10;99.00;;;;;;5055284;28;20577;-83
2021/04/05 09:03:13;;;;;;;15.73;3.97;;;5.10;98.10;;;;;;5072734;28;20697;-83
2021/04/05 09:05:42;;;;;;;12.93;3.17;;;5.10;97.60;;;;;;5055263;28;20212;-85
2021/04/05 09:08:10;;;;;;;12.57;2.97;;;5.10;96.00;;;;;;5073045;28;20172;-81
2021/04/05 09:10:58;;;;;;;16.90;4.00;;;5.00;93.20;;;;;;5073154;28;20641;-84
2021/04/05 09:13:49;;;;;;;12.97;3.17;;;5.00;92.60;;;;;;5073771;28;20165;-85
2021/04/05 09:16:22;;;;;;;14.10;3.57;;;5.10;90.80;;;;;;5071688;28;20176;-84
2021/04/05 09:18:47;;;;;;;14.67;2.80;;;5.20;87.60;;;;;;5075184;28;20273;-86
2021/04/05 09:21:16;;;;;;;14.20;3.73;;;5.20;84.20;;;;;;5055220;28;20298;-85
2021/04/05 09:23:50;;;;;;;8.70;2.77;;;5.20;83.50;;;;;;5072987;28;20176;-85
2021/04/05 09:26:43;;;;;;;10.37;2.13;;;5.10;79.50;;;;;;5073032;28;20171;-86
2021/04/05 09:29:33;;;;;;;9.97;2.57;;;4.90;77.10;;;;;;5072774;28;20190;-86
2021/04/05 09:32:35;;;;;;;5.67;2.20;;;4.80;76.30;;;;;;5054815;28;20176;-86
2021/04/05 09:35:25;;;;;;;7.80;2.40;;;4.90;74.70;;;;;;5054946;28;20182;-86
2021/04/05 09:38:30;;;;;;;8.07;2.37;;;4.90;74.00;;;;;;5055032;28;20176;-84
2021/04/05 09:41:08;;;;;;;8.63;3.17;;;4.90;70.10;;;;;;5042313;28;20216;-85
2021/04/05 09:44:11;;;;;;;9.97;3.30;;;4.90;72.70;;;;;;5072801;28;20168;-85
2021/04/05 09:46:55;;;;;;;11.83;3.37;;;5.00;63.80;;;;;;5072660;28;20174;-83
2021/04/05 09:49:38;;;;;;;13.53;4.03;;;5.00;65.80;;;;;;5072648;28;20176;-85
2021/04/05 09:52:30;;;;;;;13.30;4.13;;;5.10;67.40;;;;;;5054575;28;20536;-87
2021/04/05 09:55:04;;;;;;;11.57;2.80;;;5.10;70.10;;;;;;5054746;28;20321;-85
2021/04/05 09:57:37;;;;;;;8.73;2.10;;;5.00;76.20;;;;;;5072769;28;20268;-84
2021/04/05 10:00:16;;;;;;;12.17;3.97;;;5.00;75.50;;;;;;5054270;28;20726;-85
2021/04/05 10:02:54;;;;;;;19.70;4.87;;;5.00;64.20;;;;;;5076460;28;20500;-85
2021/04/05 10:05:23;;;;;;;6.97;2.63;;;5.30;59.10;;;;;;5076693;28;20200;-83
2021/04/05 10:07:51;;;;;;;8.17;2.73;;;5.20;38.50;;;;;;5076730;28;20170;-85
2021/04/05 10:10:18;;;;;;;6.50;2.07;;;5.30;51.80;;;;;;5076388;28;20168;-85
2021/04/05 10:12:47;;;;;;;11.90;2.57;;;5.30;47.60;;;;;;5076601;28;20295;-83
2021/04/05 10:15:18;;;;;;;8.73;2.50;;;5.40;35.60;;;;;;5058076;28;20176;-85
2021/04/05 10:18:06;;;;;;;10.57;2.30;;;5.50;38.10;;;;;;5076518;28;20650;-86
2021/04/05 10:20:33;;;;;;;8.50;1.83;;;5.40;22.90;;;;;;5077113;28;20741;-84
2021/04/05 10:23:05;;;;;;;10.00;2.10;;;5.20;52.60;;;;;;5059336;28;20531;-82
2021/04/05 10:25:32;;;;;;;5.60;2.20;;;4.50;78.50;;;;;;5076422;28;20264;-83
2021/04/05 10:28:00;;;;;;;13.97;3.20;;;4.30;85.30;;;;;;5059511;28;20192;-86
2021/04/05 10:30:39;;;;;;;9.43;2.53;;;4.10;89.30;;;;;;5059716;28;20176;-85
2021/04/05 10:33:09;;;;;;;6.33;1.57;;;4.30;90.30;;;;;;5058202;28;20164;-84
2021/04/05 10:35:38;;;;;;;9.27;2.30;;;4.40;83.90;;;;;;5076190;28;20248;-85
2021/04/05 10:38:05;;;;;;;11.23;2.67;;;4.60;79.50;;;;;;5076065;28;20174;-84
2021/04/05 10:40:33;;;;;;;9.33;2.47;;;4.80;73.30;;;;;;5076064;28;20207;-84
2021/04/05 10:43:07;;;;;;;12.73;2.73;;;5.00;66.50;;;;;;5075713;28;20160;-87
2021/04/05 10:45:37;;;;;;;8.10;3.50;;;5.10;68.80;;;;;;5057953;28;20168;-85
2021/04/05 10:48:14;;;;;;;11.60;2.87;;;5.20;53.20;;;;;;5075837;28;20255;-84
2021/04/05 10:51:02;;;;;;;8.57;2.17;;;5.40;46.60;;;;;;5058045;28;20175;-85
2021/04/05 10:53:33;;;;;;;8.20;2.43;;;5.40;22.50;;;;;;5075776;28;20172;-85
2021/04/05 10:56:05;;;;;;;7.70;2.33;;;5.40;30.80;;;;;;5057532;28;20608;-85
2021/04/05 10:58:45;;;;;;;11.17;2.43;;;5.40;29.10;;;;;;5075463;28;20165;-85
2021/04/05 11:01:12;;;;;;;12.00;2.30;;;5.30;13.90;;;;;;5075647;28;20694;-83
2021/04/05 11:03:44;;;;;;;16.23;2.50;;;5.20;1.00;;;;;;5075740;28;20157;-86
2021/04/05 11:06:13;;;;;;;9.80;3.03;;;5.20;1.00;;;;;;5057418;28;20233;-88
2021/04/05 11:08:40;;;;;;;8.37;2.27;;;5.30;1.00;;;;;;5057249;28;20176;-84
2021/04/05 11:11:15;;;;;;;9.17;2.40;;;5.30;1.00;;;;;;5074139;28;20191;-83
2021/04/05 11:13:48;;;;;;;4.60;1.63;;;5.20;1.00;;;;;;5074933;28;20475;-85
2021/04/05 11:16:17;;;;;;;5.67;1.43;;;5.00;1.00;;;;;;5057417;28;20335;-80
2021/04/05 11:18:50;;;;;;;7.47;2.10;;;5.00;1.00;;;;;;5075069;28;20278;-85
2021/04/05 11:21:18;;;;;;;13.27;3.13;;;5.10;1.00;;;;;;5074854;28;20727;-85
2021/04/05 11:23:48;;;;;;;12.17;3.90;;;5.20;1.00;;;;;;5075102;28;20175;-86
2021/04/05 11:26:20;;;;;;;8.80;2.40;;;5.30;1.00;;;;;;5074722;28;20180;-82
2021/04/05 11:28:51;;;;;;;5.60;1.97;;;5.50;1.00;;;;;;5074806;28;20270;-84
2021/04/05 11:31:19;;;;;;;10.07;3.27;;;5.50;1.00;;;;;;5074598;28;20172;-82
2021/04/05 11:34:01;;;;;;;9.80;2.33;;;5.60;1.00;;;;;;5074661;28;20621;-86
2021/04/05 11:36:57;;;;;;;5.10;2.10;;;5.80;1.00;;;;;;5074870;28;20621;-79
2021/04/05 11:39:34;;;;;;;6.80;1.83;;;6.00;1.00;;;;;;5073676;28;20218;-82
2021/04/05 11:42:05;;;;;;;10.40;3.13;;;6.00;1.00;;;;;;5073887;28;20740;-83
2021/04/05 11:44:40;;;;;;;8.67;2.13;;;6.00;1.00;;;;;;5074799;28;20176;-80
2021/04/05 11:47:08;;;;;;;14.87;3.10;;;6.00;1.00;;;;;;5057281;28;20210;-81
2021/04/05 11:49:34;;;;;;;7.23;2.27;;;6.00;1.00;;;;;;5075254;28;20629;-83
2021/04/05 11:52:05;;;;;;;12.07;4.07;;;6.10;1.00;;;;;;5075275;28;20628;-87
2021/04/05 11:54:47;;;;;;;9.93;2.97;;;6.30;99.90;;;;;;5074429;28;20705;-82
2021/04/05 11:57:20;;;;;;;13.40;2.60;;;6.30;1.00;;;;;;5074397;28;20180;-85
2021/04/05 11:59:51;;;;;;;7.97;2.40;;;6.20;99.90;;;;;;5056025;28;20211;-83
2021/04/05 12:02:25;;;;;;;14.33;3.07;;;6.30;99.90;;;;;;5074037;28;20164;-83
2021/04/05 12:04:58;;;;;;;8.83;2.73;;;6.40;99.90;;;;;;5074205;28;20232;-82
2021/04/05 12:07:25;;;;;;;12.27;2.70;;;6.20;1.00;;;;;;5074050;28;20164;-84
2021/04/05 12:10:05;;;;;;;6.00;1.80;;;6.00;99.90;;;;;;5056160;28;20611;-85
2021/04/05 12:12:39;;;;;;;7.40;2.30;;;5.70;99.90;;;;;;5074190;28;20214;-85
2021/04/05 12:15:09;;;;;;;10.17;2.30;;;5.60;99.90;;;;;;5074105;28;20624;-83
2021/04/05 12:17:36;;;;;;;7.73;1.97;;;5.60;44.70;;;;;;5074131;28;20247;-83
2021/04/05 12:20:04;;;;;;;5.27;1.77;;;5.50;1.00;;;;;;5073898;28;20547;-80
2021/04/05 12:22:32;;;;;;;7.57;2.50;;;5.70;6.30;;;;;;5073518;28;20164;-83
2021/04/05 12:25:00;;;;;;;7.23;1.90;;;5.60;1.00;;;;;;5073086;28;20187;-85
2021/04/05 12:27:34;;;;;;;10.10;2.60;;;5.60;1.00;;;;;;5055704;28;20184;-85
2021/04/05 12:30:02;;;;;;;9.17;2.20;;;5.50;99.90;;;;;;5073396;28;20161;-82
2021/04/05 12:32:28;;;;;;;7.83;2.13;;;5.60;32.30;;;;;;5073422;28;20167;-83
2021/04/05 12:35:01;;;;;;;10.50;2.80;;;5.70;99.90;;;;;;5055561;28;20578;-86
2021/04/05 12:37:28;;;;;;;7.10;2.00;;;5.90;1.00;;;;;;5073161;28;20537;-81
2021/04/05 12:39:56;;;;;;;7.00;1.73;;;6.10;99.90;;;;;;5072829;28;20204;-84
2021/04/05 12:42:28;;;;;;;6.83;2.00;;;6.30;99.90;;;;;;5073123;28;20191;-85
2021/04/05 12:44:57;;;;;;;8.67;3.00;;;6.20;99.90;;;;;;5055203;28;20168;-86
2021/04/05 12:47:37;;;;;;;5.10;1.63;;;6.00;1.00;;;;;;5072866;28;20331;-86
2021/04/05 12:50:09;;;;;;;12.13;4.03;;;5.90;99.90;;;;;;5073189;28;20172;-85
2021/04/05 12:52:38;;;;;;;7.17;1.63;;;5.90;17.20;;;;;;5055214;28;20641;-84
2021/04/05 12:55:15;;;;;;;4.57;2.17;;;5.70;99.90;;;;;;5072825;28;20540;-89
2021/04/05 12:57:41;;;;;;;10.00;2.50;;;5.70;99.90;;;;;;5073276;28;20196;-86
2021/04/05 13:00:19;;;;;;;5.23;2.03;;;5.90;99.90;;;;;;5055613;28;20286;-86
2021/04/05 13:02:53;;;;;;;8.17;3.17;;;6.00;78.40;;;;;;5056101;28;20229;-85
2021/04/05 13:05:24;;;;;;;9.00;2.47;;;6.10;1.00;;;;;;5056562;28;20199;-85
2021/04/05 13:08:18;;;;;;;10.67;2.67;;;6.20;99.90;;;;;;5055529;28;20176;-83
2021/04/05 13:10:53;;;;;;;7.83;3.27;;;6.10;1.00;;;;;;5055160;28;20637;-81
2021/04/05 13:13:21;;;;;;;6.40;1.70;;;6.20;1.00;;;;;;5072911;28;20183;-81
2021/04/05 13:15:59;;;;;;;6.30;1.97;;;6.40;1.00;;;;;;5072419;28;20199;-82
2021/04/05 13:18:30;;;;;;;5.37;1.30;;;6.50;99.90;;;;;;5072812;28;20795;-84
2021/04/05 13:21:01;;;;;;;9.10;1.57;;;6.40;99.90;;;;;;5054806;28;20242;-84